HAN weather

Noi Bai International Airport
Hanoi, Ha Tay Province, Vietnam

Public forecast

Using degrees Celsius for public forecast. Weather courtesy of forecast.io.

Current aviation weather report (METAR) for Noi Bai International Airport

Retrieved 2020/04/08 20:30 UTC (25 minutes ago):

VVNB 082030Z 28003KT 2000 BR FEW040 20/18 Q1016 NOSIG

Aviation forecast (TAF) for Noi Bai International Airport

Retrieved 2020/04/08 18:39 UTC (2 hours ago):

TAF VVNB 081700Z 0818/0918 34004KT 3200 BR SCT020 BKN050 TEMPO 0820/0901 1200 DZ BR BKN004 BKN030 BECMG 0903/0904 6000 NSW